Preview of NWS' New Version of Forecast
This preview is not operational and should not be used for support decisions.

Terminal Aerodrome Forecast (TAF)

Issued by National Weather Service (NWS)

                            
000
FTUS42 KKEY 201238 AAA
TAFMTH
TAF AMD
KMTH 201238Z 2013/2112 23010G17KT P6SM VCSH SCT020 BKN050
      TEMPO 2013/2014 25018G28KT 2SM TSRA SCT015CB BKN040
     FM201600 31018G28KT 4SM SHRA BKN025 BKN040
     FM201900 33017G27KT P6SM BKN017 OVC030=